sensor_id;sensor_type;location;lat;lon;timestamp;pressure;altitude;pressure_sealevel;temperature;humidity
64675;BME280;51090;51.512;11.332;2023-04-26T00:02:12;99354.44;;;4.56;nan
64675;BME280;51090;51.512;11.332;2023-04-26T00:04:39;99359.84;;;4.55;nan
64675;BME280;51090;51.512;11.332;2023-04-26T00:07:05;99360.13;;;4.52;nan
64675;BME280;51090;51.512;11.332;2023-04-26T00:09:32;99359.47;;;4.50;nan
64675;BME280;51090;51.512;11.332;2023-04-26T00:11:58;99368.28;;;4.49;nan
64675;BME280;51090;51.512;11.332;2023-04-26T00:14:25;99358.22;;;4.44;nan
64675;BME280;51090;51.512;11.332;2023-04-26T00:16:51;99366.28;;;4.43;nan
64675;BME280;51090;51.512;11.332;2023-04-26T00:19:17;99363.78;;;4.41;nan
64675;BME280;51090;51.512;11.332;2023-04-26T00:21:43;99363.41;;;4.36;nan
64675;BME280;51090;51.512;11.332;2023-04-26T00:24:09;99360.25;;;4.32;nan
64675;BME280;51090;51.512;11.332;2023-04-26T00:26:35;99367.56;;;4.29;nan
64675;BME280;51090;51.512;11.332;2023-04-26T00:29:03;99365.13;;;4.27;nan
64675;BME280;51090;51.512;11.332;2023-04-26T00:31:29;99369.00;;;4.23;nan
64675;BME280;51090;51.512;11.332;2023-04-26T00:33:55;99371.22;;;4.18;nan
64675;BME280;51090;51.512;11.332;2023-04-26T00:36:22;99372.50;;;4.14;nan
64675;BME280;51090;51.512;11.332;2023-04-26T00:38:48;99380.63;;;4.11;nan
64675;BME280;51090;51.512;11.332;2023-04-26T00:41:14;99378.59;;;4.05;nan
64675;BME280;51090;51.512;11.332;2023-04-26T00:43:40;99378.09;;;4.01;nan
64675;BME280;51090;51.512;11.332;2023-04-26T00:46:10;99382.06;;;4.05;nan
64675;BME280;51090;51.512;11.332;2023-04-26T00:48:37;99383.47;;;4.00;nan
64675;BME280;51090;51.512;11.332;2023-04-26T00:51:04;99384.72;;;3.96;nan
64675;BME280;51090;51.512;11.332;2023-04-26T00:53:31;99386.66;;;3.93;nan
64675;BME280;51090;51.512;11.332;2023-04-26T00:55:58;99379.91;;;3.91;nan
64675;BME280;51090;51.512;11.332;2023-04-26T00:58:25;99381.97;;;3.87;nan
64675;BME280;51090;51.512;11.332;2023-04-26T01:00:51;99381.31;;;3.85;nan
64675;BME280;51090;51.512;11.332;2023-04-26T01:03:17;99380.63;;;3.83;nan
64675;BME280;51090;51.512;11.332;2023-04-26T01:05:44;99380.91;;;3.80;nan
64675;BME280;51090;51.512;11.332;2023-04-26T01:08:10;99391.53;;;3.79;nan
64675;BME280;51090;51.512;11.332;2023-04-26T01:10:38;99385.47;;;3.78;nan
64675;BME280;51090;51.512;11.332;2023-04-26T01:13:04;99388.53;;;3.74;nan
64675;BME280;51090;51.512;11.332;2023-04-26T01:15:31;99385.50;;;3.68;nan
64675;BME280;51090;51.512;11.332;2023-04-26T01:17:58;99391.84;;;3.66;nan
64675;BME280;51090;51.512;11.332;2023-04-26T01:20:24;99389.34;;;3.64;nan
64675;BME280;51090;51.512;11.332;2023-04-26T01:22:51;99390.47;;;3.62;nan
64675;BME280;51090;51.512;11.332;2023-04-26T01:25:18;99386.91;;;3.63;nan
64675;BME280;51090;51.512;11.332;2023-04-26T01:27:45;99387.44;;;3.66;nan
64675;BME280;51090;51.512;11.332;2023-04-26T01:30:11;99390.03;;;3.66;nan
64675;BME280;51090;51.512;11.332;2023-04-26T01:32:37;99393.78;;;3.64;nan
64675;BME280;51090;51.512;11.332;2023-04-26T01:35:03;99394.88;;;3.61;nan
64675;BME280;51090;51.512;11.332;2023-04-26T01:37:30;99391.34;;;3.53;nan
64675;BME280;51090;51.512;11.332;2023-04-26T01:39:56;99389.13;;;3.48;nan
64675;BME280;51090;51.512;11.332;2023-04-26T01:42:22;99392.72;;;3.47;nan
64675;BME280;51090;51.512;11.332;2023-04-26T01:44:48;99397.13;;;3.46;nan
64675;BME280;51090;51.512;11.332;2023-04-26T01:47:14;99388.84;;;3.41;nan
64675;BME280;51090;51.512;11.332;2023-04-26T01:49:40;99388.84;;;3.41;nan
64675;BME280;51090;51.512;11.332;2023-04-26T01:52:06;99392.56;;;3.39;nan
64675;BME280;51090;51.512;11.332;2023-04-26T01:54:32;99388.44;;;3.36;nan
64675;BME280;51090;51.512;11.332;2023-04-26T01:56:58;99391.22;;;3.35;nan
64675;BME280;51090;51.512;11.332;2023-04-26T01:59:24;99399.06;;;3.35;nan
64675;BME280;51090;51.512;11.332;2023-04-26T02:01:51;99395.34;;;3.27;nan
64675;BME280;51090;51.512;11.332;2023-04-26T02:04:17;99396.59;;;3.23;nan
64675;BME280;51090;51.512;11.332;2023-04-26T02:06:43;99405.44;;;3.22;nan
64675;BME280;51090;51.512;11.332;2023-04-26T02:09:09;99395.22;;;3.19;nan
64675;BME280;51090;51.512;11.332;2023-04-26T02:11:36;99401.56;;;3.17;nan
64675;BME280;51090;51.512;11.332;2023-04-26T02:14:02;99396.63;;;3.14;nan
64675;BME280;51090;51.512;11.332;2023-04-26T02:16:28;99403.78;;;3.12;nan
64675;BME280;51090;51.512;11.332;2023-04-26T02:18:54;99397.84;;;3.10;nan
64675;BME280;51090;51.512;11.332;2023-04-26T02:21:21;99401.44;;;3.09;nan
64675;BME280;51090;51.512;11.332;2023-04-26T02:23:47;99393.16;;;3.03;nan
64675;BME280;51090;51.512;11.332;2023-04-26T02:26:13;99395.91;;;3.02;nan
64675;BME280;51090;51.512;11.332;2023-04-26T02:28:40;99396.03;;;3.00;nan
64675;BME280;51090;51.512;11.332;2023-04-26T02:31:07;99391.78;;;2.99;nan
64675;BME280;51090;51.512;11.332;2023-04-26T02:33:33;99396.47;;;2.96;nan
64675;BME280;51090;51.512;11.332;2023-04-26T02:36:02;99399.91;;;2.96;nan
64675;BME280;51090;51.512;11.332;2023-04-26T02:38:29;99394.09;;;2.93;nan
64675;BME280;51090;51.512;11.332;2023-04-26T02:40:59;99384.88;;;2.89;nan
64675;BME280;51090;51.512;11.332;2023-04-26T02:43:25;99390.53;;;2.84;nan
64675;BME280;51090;51.512;11.332;2023-04-26T02:45:52;99386.25;;;2.83;nan
64675;BME280;51090;51.512;11.332;2023-04-26T02:48:18;99381.41;;;2.78;nan
64675;BME280;51090;51.512;11.332;2023-04-26T02:50:44;99385.13;;;2.76;nan
64675;BME280;51090;51.512;11.332;2023-04-26T02:53:11;99388.03;;;2.73;nan
64675;BME280;51090;51.512;11.332;2023-04-26T02:55:38;99383.31;;;2.67;nan
64675;BME280;51090;51.512;11.332;2023-04-26T02:58:04;99385.81;;;2.68;nan
64675;BME280;51090;51.512;11.332;2023-04-26T03:00:31;99381.69;;;2.66;nan
64675;BME280;51090;51.512;11.332;2023-04-26T03:02:58;99386.22;;;2.64;nan
64675;BME280;51090;51.512;11.332;2023-04-26T03:05:24;99381.66;;;2.56;nan
64675;BME280;51090;51.512;11.332;2023-04-26T03:07:51;99385.78;;;2.58;nan
64675;BME280;51090;51.512;11.332;2023-04-26T03:10:17;99386.88;;;2.56;nan
64675;BME280;51090;51.512;11.332;2023-04-26T03:12:43;99382.75;;;2.53;nan
64675;BME280;51090;51.512;11.332;2023-04-26T03:15:09;99391.34;;;2.65;nan
64675;BME280;51090;51.512;11.332;2023-04-26T03:17:36;99389.66;;;2.64;nan
64675;BME280;51090;51.512;11.332;2023-04-26T03:20:02;99392.97;;;2.66;nan
64675;BME280;51090;51.512;11.332;2023-04-26T03:22:30;99398.75;;;2.60;nan
64675;BME280;51090;51.512;11.332;2023-04-26T03:24:56;99401.50;;;2.58;nan
64675;BME280;51090;51.512;11.332;2023-04-26T03:27:22;99395.16;;;2.61;nan
64675;BME280;51090;51.512;11.332;2023-04-26T03:29:48;99392.25;;;2.45;nan
64675;BME280;51090;51.512;11.332;2023-04-26T03:32:14;99389.22;;;2.39;nan
64675;BME280;51090;51.512;11.332;2023-04-26T03:34:40;99386.16;;;2.34;nan
64675;BME280;51090;51.512;11.332;2023-04-26T03:37:06;99395.94;;;2.32;nan
64675;BME280;51090;51.512;11.332;2023-04-26T03:39:33;99392.63;;;2.30;nan
64675;BME280;51090;51.512;11.332;2023-04-26T03:41:59;99388.34;;;2.29;nan
64675;BME280;51090;51.512;11.332;2023-04-26T03:44:25;99386.44;;;2.41;nan
64675;BME280;51090;51.512;11.332;2023-04-26T03:46:51;99394.28;;;2.41;nan
64675;BME280;51090;51.512;11.332;2023-04-26T03:49:18;99384.06;;;2.28;nan
64675;BME280;51090;51.512;11.332;2023-04-26T03:51:44;99392.09;;;2.36;nan
64675;BME280;51090;51.512;11.332;2023-04-26T03:54:10;99398.16;;;2.37;nan
64675;BME280;51090;51.512;11.332;2023-04-26T03:56:36;99393.19;;;2.34;nan
64675;BME280;51090;51.512;11.332;2023-04-26T03:59:02;99396.06;;;2.31;nan
64675;BME280;51090;51.512;11.332;2023-04-26T04:01:28;99400.06;;;2.35;nan
64675;BME280;51090;51.512;11.332;2023-04-26T04:03:54;99400.78;;;2.37;nan
64675;BME280;51090;51.512;11.332;2023-04-26T04:06:20;99403.38;;;2.37;nan
64675;BME280;51090;51.512;11.332;2023-04-26T04:08:46;99394.56;;;2.38;nan
64675;BME280;51090;51.512;11.332;2023-04-26T04:11:12;99400.34;;;2.32;nan
64675;BME280;51090;51.512;11.332;2023-04-26T04:13:38;99403.34;;;2.27;nan
64675;BME280;51090;51.512;11.332;2023-04-26T04:16:04;99405.16;;;2.27;nan
64675;BME280;51090;51.512;11.332;2023-04-26T04:18:31;99408.59;;;2.27;nan
64675;BME280;51090;51.512;11.332;2023-04-26T04:20:57;99407.59;;;2.28;nan
64675;BME280;51090;51.512;11.332;2023-04-26T04:23:23;99405.84;;;2.29;nan
64675;BME280;51090;51.512;11.332;2023-04-26T04:25:49;99406.66;;;2.29;nan
64675;BME280;51090;51.512;11.332;2023-04-26T04:28:16;99411.63;;;2.32;nan
64675;BME280;51090;51.512;11.332;2023-04-26T04:30:42;99424.94;;;2.70;nan
64675;BME280;51090;51.512;11.332;2023-04-26T04:33:12;99425.00;;;2.89;nan
64675;BME280;51090;51.512;11.332;2023-04-26T04:35:39;99422.50;;;2.97;nan
64675;BME280;51090;51.512;11.332;2023-04-26T04:38:05;99421.28;;;3.01;nan
64675;BME280;51090;51.512;11.332;2023-04-26T04:40:31;99439.22;;;3.35;nan
64675;BME280;51090;51.512;11.332;2023-04-26T04:42:57;99442.94;;;3.42;nan
64675;BME280;51090;51.512;11.332;2023-04-26T04:45:25;99426.25;;;3.34;nan
64675;BME280;51090;51.512;11.332;2023-04-26T04:47:52;99432.19;;;3.16;nan
64675;BME280;51090;51.512;11.332;2023-04-26T04:50:19;99425.84;;;3.09;nan
64675;BME280;51090;51.512;11.332;2023-04-26T04:52:46;99437.03;;;3.11;nan
64675;BME280;51090;51.512;11.332;2023-04-26T04:55:12;99436.72;;;3.04;nan
64675;BME280;51090;51.512;11.332;2023-04-26T04:57:38;99422.16;;;2.61;nan
64675;BME280;51090;51.512;11.332;2023-04-26T05:00:05;99411.53;;;2.53;nan
64675;BME280;51090;51.512;11.332;2023-04-26T05:02:35;99422.16;;;2.52;nan
64675;BME280;51090;51.512;11.332;2023-04-26T05:05:03;99419.72;;;2.60;nan
64675;BME280;51090;51.512;11.332;2023-04-26T05:07:33;99445.28;;;3.16;nan
64675;BME280;51090;51.512;11.332;2023-04-26T05:09:59;99436.06;;;3.22;nan
64675;BME280;51090;51.512;11.332;2023-04-26T05:12:25;99441.72;;;3.37;nan
64675;BME280;51090;51.512;11.332;2023-04-26T05:14:51;99449.00;;;3.43;nan
64675;BME280;51090;51.512;11.332;2023-04-26T05:17:18;99449.56;;;3.56;nan
64675;BME280;51090;51.512;11.332;2023-04-26T05:19:44;99445.28;;;3.65;nan
64675;BME280;51090;51.512;11.332;2023-04-26T05:22:10;99446.91;;;3.66;nan
64675;BME280;51090;51.512;11.332;2023-04-26T05:24:40;99434.91;;;3.73;nan
64675;BME280;51090;51.512;11.332;2023-04-26T05:27:06;99436.81;;;3.81;nan
64675;BME280;51090;51.512;11.332;2023-04-26T05:29:32;99447.94;;;4.02;nan
64675;BME280;51090;51.512;11.332;2023-04-26T05:31:58;99432.56;;;3.70;nan
64675;BME280;51090;51.512;11.332;2023-04-26T05:34:24;99429.66;;;3.73;nan
64675;BME280;51090;51.512;11.332;2023-04-26T05:36:50;99432.69;;;3.78;nan
64675;BME280;51090;51.512;11.332;2023-04-26T05:39:16;99432.91;;;3.95;nan
64675;BME280;51090;51.512;11.332;2023-04-26T05:41:43;99434.41;;;4.07;nan
64675;BME280;51090;51.512;11.332;2023-04-26T05:44:09;99430.91;;;4.16;nan
64675;BME280;51090;51.512;11.332;2023-04-26T05:46:35;99433.06;;;4.30;nan
64675;BME280;51090;51.512;11.332;2023-04-26T05:49:01;99442.94;;;4.46;nan
64675;BME280;51090;51.512;11.332;2023-04-26T05:51:27;99441.78;;;4.58;nan
64675;BME280;51090;51.512;11.332;2023-04-26T05:53:53;99466.94;;;5.07;nan
64675;BME280;51090;51.512;11.332;2023-04-26T05:56:19;99466.16;;;5.24;nan
64675;BME280;51090;51.512;11.332;2023-04-26T05:58:46;99458.31;;;5.14;nan
64675;BME280;51090;51.512;11.332;2023-04-26T06:01:12;99464.72;;;5.30;nan
64675;BME280;51090;51.512;11.332;2023-04-26T06:03:39;99468.75;;;5.42;nan
64675;BME280;51090;51.512;11.332;2023-04-26T06:06:05;99462.22;;;5.46;nan
64675;BME280;51090;51.512;11.332;2023-04-26T06:08:33;99459.34;;;5.57;nan
64675;BME280;51090;51.512;11.332;2023-04-26T06:10:59;99471.34;;;5.78;nan
64675;BME280;51090;51.512;11.332;2023-04-26T06:13:25;99464.03;;;5.89;nan
64675;BME280;51090;51.512;11.332;2023-04-26T06:15:52;99469.44;;;6.06;nan
64675;BME280;51090;51.512;11.332;2023-04-26T06:18:18;99463.25;;;6.15;nan
64675;BME280;51090;51.512;11.332;2023-04-26T06:20:45;99470.03;;;6.26;nan
64675;BME280;51090;51.512;11.332;2023-04-26T06:23:12;99463.97;;;6.25;nan
64675;BME280;51090;51.512;11.332;2023-04-26T06:25:38;99459.41;;;6.36;nan
64675;BME280;51090;51.512;11.332;2023-04-26T06:28:09;99467.16;;;6.37;nan
64675;BME280;51090;51.512;11.332;2023-04-26T06:30:35;99460.94;;;6.46;nan
64675;BME280;51090;51.512;11.332;2023-04-26T06:33:01;99449.22;;;6.41;nan
64675;BME280;51090;51.512;11.332;2023-04-26T06:35:27;99454.16;;;6.44;nan
64675;BME280;51090;51.512;11.332;2023-04-26T06:37:53;99464.25;;;6.48;nan
64675;BME280;51090;51.512;11.332;2023-04-26T06:40:19;99453.25;;;6.53;nan
64675;BME280;51090;51.512;11.332;2023-04-26T06:42:45;99460.97;;;6.54;nan
64675;BME280;51090;51.512;11.332;2023-04-26T06:45:12;99457.06;;;6.67;nan
64675;BME280;51090;51.512;11.332;2023-04-26T06:47:38;99457.75;;;6.69;nan
64675;BME280;51090;51.512;11.332;2023-04-26T06:50:05;99466.34;;;6.79;nan
64675;BME280;51090;51.512;11.332;2023-04-26T06:52:31;99460.75;;;6.90;nan
64675;BME280;51090;51.512;11.332;2023-04-26T06:55:01;99464.28;;;7.15;nan
64675;BME280;51090;51.512;11.332;2023-04-26T06:57:28;99460.50;;;7.34;nan
64675;BME280;51090;51.512;11.332;2023-04-26T06:59:54;99469.13;;;7.53;nan
64675;BME280;51090;51.512;11.332;2023-04-26T07:02:20;99460.53;;;7.75;nan
64675;BME280;51090;51.512;11.332;2023-04-26T07:04:48;99459.53;;;7.84;nan
64675;BME280;51090;51.512;11.332;2023-04-26T07:07:14;99462.66;;;7.88;nan
64675;BME280;51090;51.512;11.332;2023-04-26T07:09:41;99461.50;;;8.07;nan
64675;BME280;51090;51.512;11.332;2023-04-26T07:12:07;99460.47;;;8.16;nan
64675;BME280;51090;51.512;11.332;2023-04-26T07:14:35;99455.63;;;8.36;nan
64675;BME280;51090;51.512;11.332;2023-04-26T07:17:05;99456.56;;;8.60;nan
64675;BME280;51090;51.512;11.332;2023-04-26T07:19:31;99468.56;;;8.70;nan
64675;BME280;51090;51.512;11.332;2023-04-26T07:21:57;99477.72;;;8.60;nan
64675;BME280;51090;51.512;11.332;2023-04-26T07:24:22;99472.84;;;8.80;nan
64675;BME280;51090;51.512;11.332;2023-04-26T07:26:48;99474.91;;;9.24;nan
64675;BME280;51090;51.512;11.332;2023-04-26T07:29:14;99461.25;;;9.58;nan
64675;BME280;51090;51.512;11.332;2023-04-26T07:31:40;99463.75;;;9.59;nan
64675;BME280;51090;51.512;11.332;2023-04-26T07:34:06;99469.50;;;9.63;nan
64675;BME280;51090;51.512;11.332;2023-04-26T07:36:31;99464.84;;;9.65;nan
64675;BME280;51090;51.512;11.332;2023-04-26T07:38:57;99461.63;;;9.93;nan
64675;BME280;51090;51.512;11.332;2023-04-26T07:41:23;99457.91;;;10.17;nan
64675;BME280;51090;51.512;11.332;2023-04-26T07:43:49;99478.22;;;10.24;nan
64675;BME280;51090;51.512;11.332;2023-04-26T07:46:14;99478.94;;;10.18;nan
64675;BME280;51090;51.512;11.332;2023-04-26T07:48:40;99478.19;;;9.95;nan
64675;BME280;51090;51.512;11.332;2023-04-26T07:51:12;99489.19;;;9.84;nan
64675;BME280;51090;51.512;11.332;2023-04-26T07:53:39;99462.63;;;9.31;nan
64675;BME280;51090;51.512;11.332;2023-04-26T07:56:06;99480.88;;;9.26;nan
64675;BME280;51090;51.512;11.332;2023-04-26T07:58:33;99490.50;;;9.19;nan
64675;BME280;51090;51.512;11.332;2023-04-26T08:01:00;99484.69;;;9.23;nan
64675;BME280;51090;51.512;11.332;2023-04-26T08:03:26;99484.22;;;9.43;nan
64675;BME280;51090;51.512;11.332;2023-04-26T08:05:53;99484.84;;;9.68;nan
64675;BME280;51090;51.512;11.332;2023-04-26T08:08:20;99473.63;;;9.66;nan
64675;BME280;51090;51.512;11.332;2023-04-26T08:10:46;99483.91;;;9.60;nan
64675;BME280;51090;51.512;11.332;2023-04-26T08:13:12;99474.69;;;9.56;nan
64675;BME280;51090;51.512;11.332;2023-04-26T08:15:38;99484.75;;;9.84;nan
64675;BME280;51090;51.512;11.332;2023-04-26T08:18:03;99476.06;;;9.90;nan
64675;BME280;51090;51.512;11.332;2023-04-26T08:20:30;99473.66;;;10.18;nan
64675;BME280;51090;51.512;11.332;2023-04-26T08:22:57;99474.72;;;10.09;nan
64675;BME280;51090;51.512;11.332;2023-04-26T08:25:24;99482.75;;;10.01;nan
64675;BME280;51090;51.512;11.332;2023-04-26T08:27:50;99469.34;;;10.02;nan
64675;BME280;51090;51.512;11.332;2023-04-26T08:30:17;99465.75;;;10.33;nan
64675;BME280;51090;51.512;11.332;2023-04-26T08:32:44;99475.06;;;10.59;nan
64675;BME280;51090;51.512;11.332;2023-04-26T08:35:10;99471.84;;;10.63;nan
64675;BME280;51090;51.512;11.332;2023-04-26T08:37:36;99453.38;;;10.70;nan
64675;BME280;51090;51.512;11.332;2023-04-26T08:40:06;99481.88;;;10.98;nan
64675;BME280;51090;51.512;11.332;2023-04-26T08:42:40;99497.38;;;10.50;nan
64675;BME280;51090;51.512;11.332;2023-04-26T08:45:07;99495.81;;;10.40;nan
64675;BME280;51090;51.512;11.332;2023-04-26T08:50:12;99467.81;;;10.67;nan
64675;BME280;51090;51.512;11.332;2023-04-26T08:52:40;99471.09;;;10.84;nan
64675;BME280;51090;51.512;11.332;2023-04-26T08:55:08;99475.44;;;11.07;nan
64675;BME280;51090;51.512;11.332;2023-04-26T08:57:35;99476.28;;;11.29;nan
64675;BME280;51090;51.512;11.332;2023-04-26T09:00:05;99460.03;;;11.17;nan
64675;BME280;51090;51.512;11.332;2023-04-26T09:02:35;99473.34;;;11.39;nan
64675;BME280;51090;51.512;11.332;2023-04-26T09:05:01;99465.66;;;11.50;nan
64675;BME280;51090;51.512;11.332;2023-04-26T09:07:39;99474.91;;;11.54;nan
64675;BME280;51090;51.512;11.332;2023-04-26T09:10:05;99474.09;;;11.54;nan
64675;BME280;51090;51.512;11.332;2023-04-26T09:12:32;99470.53;;;11.25;nan
64675;BME280;51090;51.512;11.332;2023-04-26T09:14:57;99477.88;;;11.23;nan
64675;BME280;51090;51.512;11.332;2023-04-26T09:17:50;99487.31;;;11.69;nan
64675;BME280;51090;51.512;11.332;2023-04-26T09:20:22;99456.50;;;11.31;nan
64675;BME280;51090;51.512;11.332;2023-04-26T09:22:50;99476.16;;;11.37;nan
64675;BME280;51090;51.512;11.332;2023-04-26T09:25:26;99461.00;;;11.52;nan
64675;BME280;51090;51.512;11.332;2023-04-26T09:27:53;99480.00;;;11.99;nan
64675;BME280;51090;51.512;11.332;2023-04-26T09:30:19;99484.59;;;12.40;nan
64675;BME280;51090;51.512;11.332;2023-04-26T09:35:35;99493.91;;;13.05;nan
64675;BME280;51090;51.512;11.332;2023-04-26T09:38:17;99477.47;;;12.89;nan
64675;BME280;51090;51.512;11.332;2023-04-26T09:40:49;99493.59;;;12.80;nan
64675;BME280;51090;51.512;11.332;2023-04-26T09:43:20;99470.97;;;12.56;nan
64675;BME280;51090;51.512;11.332;2023-04-26T09:45:54;99493.72;;;12.66;nan
64675;BME280;51090;51.512;11.332;2023-04-26T09:48:29;99486.66;;;12.86;nan
64675;BME280;51090;51.512;11.332;2023-04-26T09:51:16;99498.06;;;13.21;nan
64675;BME280;51090;51.512;11.332;2023-04-26T09:53:48;99497.47;;;13.26;nan
64675;BME280;51090;51.512;11.332;2023-04-26T09:56:17;99488.41;;;13.14;nan
64675;BME280;51090;51.512;11.332;2023-04-26T10:01:14;99500.41;;;12.90;nan
64675;BME280;51090;51.512;11.332;2023-04-26T10:03:40;99494.19;;;12.69;nan
64675;BME280;51090;51.512;11.332;2023-04-26T10:06:07;99505.75;;;12.96;nan
64675;BME280;51090;51.512;11.332;2023-04-26T10:08:33;99488.59;;;13.05;nan
64675;BME280;51090;51.512;11.332;2023-04-26T10:11:00;99502.41;;;13.29;nan
64675;BME280;51090;51.512;11.332;2023-04-26T10:13:30;99500.41;;;13.51;nan
64675;BME280;51090;51.512;11.332;2023-04-26T10:15:58;99506.38;;;13.60;nan
64675;BME280;51090;51.512;11.332;2023-04-26T10:18:24;99496.94;;;13.64;nan
64675;BME280;51090;51.512;11.332;2023-04-26T10:20:52;99503.63;;;13.26;nan
64675;BME280;51090;51.512;11.332;2023-04-26T10:23:23;99501.72;;;13.20;nan
64675;BME280;51090;51.512;11.332;2023-04-26T10:25:52;99486.97;;;13.18;nan
64675;BME280;51090;51.512;11.332;2023-04-26T10:31:06;99491.50;;;13.24;nan
64675;BME280;51090;51.512;11.332;2023-04-26T10:33:32;99496.47;;;13.27;nan
64675;BME280;51090;51.512;11.332;2023-04-26T10:36:03;99482.25;;;13.06;nan
64675;BME280;51090;51.512;11.332;2023-04-26T10:38:30;99490.97;;;13.42;nan
64675;BME280;51090;51.512;11.332;2023-04-26T10:41:30;99481.94;;;13.36;nan
64675;BME280;51090;51.512;11.332;2023-04-26T10:43:58;99501.25;;;13.65;nan
64675;BME280;51090;51.512;11.332;2023-04-26T10:46:37;99500.63;;;13.63;nan
64675;BME280;51090;51.512;11.332;2023-04-26T10:49:18;99500.44;;;13.78;nan
64675;BME280;51090;51.512;11.332;2023-04-26T10:52:16;99502.09;;;13.92;nan
64675;BME280;51090;51.512;11.332;2023-04-26T10:57:17;99480.53;;;14.33;nan
64675;BME280;51090;51.512;11.332;2023-04-26T11:05:39;99483.84;;;13.82;nan
64675;BME280;51090;51.512;11.332;2023-04-26T11:08:20;99488.56;;;13.67;nan
64675;BME280;51090;51.512;11.332;2023-04-26T11:11:10;99489.53;;;13.39;nan
64675;BME280;51090;51.512;11.332;2023-04-26T11:13:41;99485.75;;;13.20;nan
64675;BME280;51090;51.512;11.332;2023-04-26T11:16:09;99485.72;;;13.07;nan
64675;BME280;51090;51.512;11.332;2023-04-26T11:18:38;99490.84;;;13.15;nan
64675;BME280;51090;51.512;11.332;2023-04-26T11:21:05;99489.31;;;13.41;nan
64675;BME280;51090;51.512;11.332;2023-04-26T11:23:31;99489.75;;;13.51;nan
64675;BME280;51090;51.512;11.332;2023-04-26T11:25:59;99505.13;;;13.69;nan
64675;BME280;51090;51.512;11.332;2023-04-26T11:28:28;99505.09;;;13.42;nan
64675;BME280;51090;51.512;11.332;2023-04-26T11:30:54;99490.66;;;13.10;nan
64675;BME280;51090;51.512;11.332;2023-04-26T11:33:21;99485.25;;;12.97;nan
64675;BME280;51090;51.512;11.332;2023-04-26T11:35:48;99492.91;;;13.13;nan
64675;BME280;51090;51.512;11.332;2023-04-26T11:38:14;99480.84;;;13.17;nan
64675;BME280;51090;51.512;11.332;2023-04-26T11:40:40;99493.34;;;13.23;nan
64675;BME280;51090;51.512;11.332;2023-04-26T11:43:08;99482.50;;;13.25;nan
64675;BME280;51090;51.512;11.332;2023-04-26T11:45:36;99500.50;;;13.23;nan
64675;BME280;51090;51.512;11.332;2023-04-26T11:48:05;99498.31;;;13.26;nan
64675;BME280;51090;51.512;11.332;2023-04-26T11:50:33;99487.81;;;13.25;nan
64675;BME280;51090;51.512;11.332;2023-04-26T11:53:03;99489.09;;;13.29;nan
64675;BME280;51090;51.512;11.332;2023-04-26T11:55:31;99487.88;;;13.38;nan
64675;BME280;51090;51.512;11.332;2023-04-26T11:57:58;99489.97;;;13.49;nan
64675;BME280;51090;51.512;11.332;2023-04-26T12:00:24;99484.41;;;13.44;nan
64675;BME280;51090;51.512;11.332;2023-04-26T12:02:51;99487.09;;;13.58;nan
64675;BME280;51090;51.512;11.332;2023-04-26T12:05:25;99485.88;;;13.60;nan
64675;BME280;51090;51.512;11.332;2023-04-26T12:07:54;99484.66;;;13.76;nan
64675;BME280;51090;51.512;11.332;2023-04-26T12:10:29;99515.00;;;14.35;nan
64675;BME280;51090;51.512;11.332;2023-04-26T12:12:58;99496.13;;;14.16;nan
64675;BME280;51090;51.512;11.332;2023-04-26T12:15:32;99512.56;;;14.13;nan
64675;BME280;51090;51.512;11.332;2023-04-26T12:18:09;99516.22;;;14.12;nan
64675;BME280;51090;51.512;11.332;2023-04-26T12:20:40;99507.81;;;14.02;nan
64675;BME280;51090;51.512;11.332;2023-04-26T12:23:13;99497.78;;;14.11;nan
64675;BME280;51090;51.512;11.332;2023-04-26T12:25:50;99514.75;;;14.43;nan
64675;BME280;51090;51.512;11.332;2023-04-26T12:28:16;99494.28;;;14.17;nan
64675;BME280;51090;51.512;11.332;2023-04-26T12:30:41;99491.78;;;14.35;nan
64675;BME280;51090;51.512;11.332;2023-04-26T12:33:07;99492.81;;;14.48;nan
64675;BME280;51090;51.512;11.332;2023-04-26T12:35:33;99500.00;;;14.54;nan
64675;BME280;51090;51.512;11.332;2023-04-26T12:37:59;99500.06;;;14.92;nan
64675;BME280;51090;51.512;11.332;2023-04-26T12:40:29;99490.66;;;15.28;nan
64675;BME280;51090;51.512;11.332;2023-04-26T12:42:57;99481.56;;;15.42;nan
64675;BME280;51090;51.512;11.332;2023-04-26T12:45:24;99492.06;;;15.37;nan
64675;BME280;51090;51.512;11.332;2023-04-26T12:47:52;99495.91;;;15.10;nan
64675;BME280;51090;51.512;11.332;2023-04-26T12:50:18;99493.59;;;14.75;nan
64675;BME280;51090;51.512;11.332;2023-04-26T12:52:44;99478.63;;;14.54;nan
64675;BME280;51090;51.512;11.332;2023-04-26T12:55:13;99498.94;;;14.48;nan
64675;BME280;51090;51.512;11.332;2023-04-26T12:57:41;99502.69;;;14.34;nan
64675;BME280;51090;51.512;11.332;2023-04-26T13:00:10;99501.06;;;13.86;nan
64675;BME280;51090;51.512;11.332;2023-04-26T13:02:37;99507.97;;;13.41;nan
64675;BME280;51090;51.512;11.332;2023-04-26T13:05:03;99500.13;;;13.26;nan
64675;BME280;51090;51.512;11.332;2023-04-26T13:07:32;99500.31;;;13.24;nan
64675;BME280;51090;51.512;11.332;2023-04-26T13:09:59;99491.47;;;13.11;nan
64675;BME280;51090;51.512;11.332;2023-04-26T13:12:25;99504.69;;;13.39;nan
64675;BME280;51090;51.512;11.332;2023-04-26T13:14:50;99515.59;;;13.64;nan
64675;BME280;51090;51.512;11.332;2023-04-26T13:17:16;99509.88;;;13.87;nan
64675;BME280;51090;51.512;11.332;2023-04-26T13:19:42;99505.75;;;14.18;nan
64675;BME280;51090;51.512;11.332;2023-04-26T13:22:09;99501.25;;;14.25;nan
64675;BME280;51090;51.512;11.332;2023-04-26T13:24:35;99497.34;;;14.34;nan
64675;BME280;51090;51.512;11.332;2023-04-26T13:27:02;99506.75;;;14.56;nan
64675;BME280;51090;51.512;11.332;2023-04-26T13:29:29;99521.28;;;14.80;nan
64675;BME280;51090;51.512;11.332;2023-04-26T13:31:56;99513.78;;;14.18;nan
64675;BME280;51090;51.512;11.332;2023-04-26T13:34:24;99511.31;;;13.89;nan
64675;BME280;51090;51.512;11.332;2023-04-26T13:36:54;99514.19;;;13.88;nan
64675;BME280;51090;51.512;11.332;2023-04-26T13:39:25;99515.63;;;13.77;nan